createdAt,value
2023-02-21T00:00:10.271Z,6.00
2023-02-21T00:01:10.428Z,5.80
2023-02-21T00:02:10.627Z,6.00
2023-02-21T00:03:10.782Z,6.10
2023-02-21T00:04:10.960Z,6.10
2023-02-21T00:05:11.205Z,5.90
2023-02-21T00:06:11.340Z,5.90
2023-02-21T00:07:11.522Z,6.30
2023-02-21T00:08:11.665Z,5.80
2023-02-21T00:09:11.925Z,6.00
2023-02-21T00:10:12.030Z,6.00
2023-02-21T00:11:12.553Z,6.10
2023-02-21T00:12:12.387Z,6.10
2023-02-21T00:13:12.565Z,6.10
2023-02-21T00:14:12.733Z,5.80
2023-02-21T00:15:12.877Z,5.70
2023-02-21T00:16:13.139Z,6.20
2023-02-21T00:17:13.240Z,6.20
2023-02-21T00:18:13.408Z,6.30
2023-02-21T00:19:13.617Z,6.20
2023-02-21T00:20:13.889Z,6.10
2023-02-21T00:21:14.179Z,6.20
2023-02-21T00:22:14.118Z,6.60
2023-02-21T00:23:14.289Z,6.40
2023-02-21T00:24:14.467Z,6.30
2023-02-21T00:25:14.667Z,6.60
2023-02-21T00:26:14.830Z,6.60
2023-02-21T00:27:14.980Z,6.60
2023-02-21T00:28:15.178Z,6.60
2023-02-21T00:29:15.341Z,6.60
2023-02-21T00:30:15.535Z,6.20
2023-02-21T00:31:16.160Z,6.20
2023-02-21T00:32:15.850Z,6.70
2023-02-21T00:33:16.054Z,6.60
2023-02-21T00:34:16.171Z,6.40
2023-02-21T00:35:16.372Z,5.80
2023-02-21T00:36:16.538Z,6.40
2023-02-21T00:37:16.712Z,6.30
2023-02-21T00:38:16.891Z,6.40
2023-02-21T00:39:17.027Z,6.40
2023-02-21T00:40:17.218Z,6.50
2023-02-21T00:41:17.517Z,6.30
2023-02-21T00:42:17.589Z,6.20
2023-02-21T00:43:17.737Z,6.60
2023-02-21T00:44:17.889Z,6.50
2023-02-21T00:45:18.083Z,6.50
2023-02-21T00:46:18.346Z,6.50
2023-02-21T00:47:18.477Z,6.70
2023-02-21T00:48:18.632Z,6.70
2023-02-21T00:49:18.786Z,6.60
2023-02-21T00:50:18.964Z,6.40
2023-02-21T00:51:19.136Z,6.60
2023-02-21T00:52:19.305Z,6.90
2023-02-21T00:53:19.462Z,6.60
2023-02-21T00:54:19.655Z,7.10
2023-02-21T00:55:19.828Z,6.60
2023-02-21T00:56:19.990Z,6.80
2023-02-21T00:57:20.138Z,6.70
2023-02-21T00:58:20.301Z,6.20
2023-02-21T00:59:20.494Z,6.60
2023-02-21T01:00:20.666Z,6.80
2023-02-21T01:01:20.866Z,6.40
2023-02-21T01:02:20.962Z,6.30
2023-02-21T01:03:21.151Z,6.50
2023-02-21T01:04:21.359Z,6.80
2023-02-21T01:05:21.507Z,6.60
2023-02-21T01:06:21.656Z,6.60
2023-02-21T01:07:21.840Z,6.50
2023-02-21T01:08:21.989Z,6.60
2023-02-21T01:09:22.153Z,6.60
2023-02-21T01:10:22.306Z,6.40
2023-02-21T01:11:22.487Z,6.90
2023-02-21T01:12:22.660Z,6.70
2023-02-21T01:13:22.828Z,6.70
2023-02-21T01:14:22.970Z,6.80
2023-02-21T01:15:23.132Z,6.50
2023-02-21T01:16:23.312Z,6.50
2023-02-21T01:17:23.500Z,6.80
2023-02-21T01:18:23.667Z,6.90
2023-02-21T01:19:23.828Z,7.10
2023-02-21T01:20:23.980Z,6.90
2023-02-21T01:21:24.136Z,7.10
2023-02-21T01:22:24.317Z,7.20
2023-02-21T01:23:24.488Z,6.70
2023-02-21T01:24:24.680Z,6.60
2023-02-21T01:25:24.816Z,6.40
2023-02-21T01:26:24.973Z,7.10
2023-02-21T01:27:25.157Z,6.90
2023-02-21T01:28:25.339Z,6.70
2023-02-21T01:29:25.509Z,6.40
2023-02-21T01:30:25.714Z,6.30
2023-02-21T01:31:25.891Z,6.60
2023-02-21T01:32:26.071Z,6.50
2023-02-21T01:33:26.217Z,7.00
2023-02-21T01:34:26.416Z,7.00
2023-02-21T01:35:26.580Z,7.00
2023-02-21T01:36:26.758Z,6.90
2023-02-21T01:37:26.921Z,6.40
2023-02-21T01:38:27.089Z,6.30
2023-02-21T01:39:27.257Z,6.40
2023-02-21T01:40:27.422Z,6.80
2023-02-21T01:41:27.597Z,6.30
2023-02-21T01:42:27.748Z,6.50
2023-02-21T01:43:27.910Z,6.60
2023-02-21T01:44:28.080Z,6.70
2023-02-21T01:45:28.256Z,6.30
2023-02-21T01:46:28.473Z,6.80
2023-02-21T01:47:28.639Z,5.90
2023-02-21T01:48:28.822Z,6.80
2023-02-21T01:49:28.982Z,6.40
2023-02-21T01:50:29.186Z,6.70
2023-02-21T01:51:29.338Z,6.60
2023-02-21T01:52:29.514Z,6.60
2023-02-21T01:53:29.658Z,6.50
2023-02-21T01:54:29.822Z,6.50
2023-02-21T01:55:30.023Z,6.20
2023-02-21T01:56:30.215Z,6.90
2023-02-21T01:57:30.350Z,6.30
2023-02-21T01:58:30.501Z,6.60
2023-02-21T01:59:30.675Z,6.30
2023-02-21T02:00:30.836Z,6.30
2023-02-21T02:01:31.079Z,6.70
2023-02-21T02:02:31.193Z,6.50
2023-02-21T02:03:31.343Z,6.30
2023-02-21T02:04:31.562Z,6.90
2023-02-21T02:05:31.664Z,6.00
2023-02-21T02:06:31.833Z,6.60
2023-02-21T02:07:32.011Z,6.30
2023-02-21T02:08:32.162Z,6.30
2023-02-21T02:09:32.314Z,6.60
2023-02-21T02:10:32.494Z,6.40
2023-02-21T02:11:32.663Z,6.60
2023-02-21T02:12:32.815Z,6.50
2023-02-21T02:13:32.998Z,6.40
2023-02-21T02:14:33.164Z,6.80
2023-02-21T02:15:33.392Z,6.30
2023-02-21T02:16:33.533Z,6.70
2023-02-21T02:17:33.682Z,6.50
2023-02-21T02:18:33.869Z,6.50
2023-02-21T02:19:34.057Z,6.50
2023-02-21T02:20:34.167Z,6.20
2023-02-21T02:21:34.324Z,6.60
2023-02-21T02:22:34.506Z,6.20
2023-02-21T02:23:34.650Z,6.50
2023-02-21T02:24:34.823Z,6.60
2023-02-21T02:25:34.986Z,6.60
2023-02-21T02:26:35.140Z,6.30
2023-02-21T02:27:35.311Z,6.60
2023-02-21T02:28:35.462Z,6.40
2023-02-21T02:29:35.628Z,7.00
2023-02-21T02:30:35.790Z,6.70
2023-02-21T02:31:36.028Z,6.30
2023-02-21T02:32:36.112Z,6.20
2023-02-21T02:33:36.294Z,6.30
2023-02-21T02:34:36.442Z,6.30
2023-02-21T02:35:36.599Z,6.40
2023-02-21T02:36:36.759Z,6.40
2023-02-21T02:37:36.910Z,6.40
2023-02-21T02:38:37.088Z,6.70
2023-02-21T02:39:37.242Z,6.80
2023-02-21T02:40:37.421Z,6.10
2023-02-21T02:41:37.570Z,6.90
2023-02-21T02:42:37.740Z,6.20
2023-02-21T02:43:37.901Z,6.30
2023-02-21T02:44:38.052Z,6.60
2023-02-21T02:45:38.216Z,6.70
2023-02-21T02:46:38.447Z,6.30
2023-02-21T02:47:38.558Z,6.80
2023-02-21T02:48:38.708Z,6.80
2023-02-21T02:49:38.861Z,6.40
2023-02-21T02:50:39.023Z,6.40
2023-02-21T02:51:39.189Z,6.50
2023-02-21T02:52:39.363Z,6.30
2023-02-21T02:53:39.521Z,6.10
2023-02-21T02:54:39.678Z,6.80
2023-02-21T02:55:39.838Z,6.90
2023-02-21T02:56:40.033Z,6.70
2023-02-21T02:57:40.162Z,6.80
2023-02-21T02:58:40.331Z,6.50
2023-02-21T02:59:40.498Z,6.30
2023-02-21T03:00:40.665Z,6.80
2023-02-21T03:01:40.885Z,6.50
2023-02-21T03:02:40.990Z,6.60
2023-02-21T03:03:41.232Z,6.50
2023-02-21T03:04:41.360Z,6.20
2023-02-21T03:05:41.533Z,6.40
2023-02-21T03:06:41.706Z,6.60
2023-02-21T03:07:41.855Z,6.20
2023-02-21T03:08:42.021Z,7.10
2023-02-21T03:09:42.172Z,7.00
2023-02-21T03:10:42.334Z,7.00
2023-02-21T03:11:42.504Z,6.40
2023-02-21T03:12:42.663Z,6.70
2023-02-21T03:13:42.818Z,6.90
2023-02-21T03:14:42.983Z,6.60
2023-02-21T03:15:43.131Z,6.80
2023-02-21T03:16:43.313Z,6.70
2023-02-21T03:17:43.468Z,7.00
2023-02-21T03:18:43.638Z,6.70
2023-02-21T03:19:43.792Z,6.50
2023-02-21T03:20:43.984Z,6.70
2023-02-21T03:21:44.163Z,6.70
2023-02-21T03:22:44.315Z,6.70
2023-02-21T03:23:44.466Z,6.70
2023-02-21T03:24:44.638Z,7.50
2023-02-21T03:25:44.788Z,7.10
2023-02-21T03:26:45.015Z,7.20
2023-02-21T03:27:45.179Z,7.20
2023-02-21T03:28:45.286Z,7.10
2023-02-21T03:29:45.436Z,6.50
2023-02-21T03:30:45.599Z,7.10
2023-02-21T03:31:45.857Z,7.00
2023-02-21T03:32:45.939Z,7.40
2023-02-21T03:33:46.086Z,7.00
2023-02-21T03:34:46.262Z,7.60
2023-02-21T03:35:46.401Z,7.00
2023-02-21T03:36:46.669Z,7.10
2023-02-21T03:37:46.749Z,6.90
2023-02-21T03:38:46.916Z,6.80
2023-02-21T03:39:47.119Z,7.50
2023-02-21T03:40:47.269Z,7.30
2023-02-21T03:41:47.430Z,7.90
2023-02-21T03:42:47.605Z,6.90
2023-02-21T03:43:47.757Z,7.50
2023-02-21T03:44:47.929Z,7.30
2023-02-21T03:45:48.100Z,7.30
2023-02-21T03:46:48.296Z,7.60
2023-02-21T03:47:48.431Z,7.90
2023-02-21T03:48:48.605Z,6.90
2023-02-21T03:49:48.757Z,7.20
2023-02-21T03:50:48.924Z,7.70
2023-02-21T03:51:49.076Z,7.60
2023-02-21T03:52:49.254Z,7.20
2023-02-21T03:53:49.410Z,7.60
2023-02-21T03:54:49.577Z,7.80
2023-02-21T03:55:49.750Z,7.70
2023-02-21T03:56:49.904Z,7.40
2023-02-21T03:57:50.066Z,7.50
2023-02-21T03:58:50.237Z,7.40
2023-02-21T03:59:50.388Z,7.90
2023-02-21T04:00:50.597Z,8.30
2023-02-21T04:01:50.717Z,7.60
2023-02-21T04:02:50.869Z,8.10
2023-02-21T04:03:51.019Z,7.80
2023-02-21T04:04:51.214Z,8.10
2023-02-21T04:05:51.432Z,7.80
2023-02-21T04:06:51.549Z,7.90
2023-02-21T04:07:51.711Z,7.80
2023-02-21T04:08:52.362Z,7.90
2023-02-21T04:09:52.081Z,7.80
2023-02-21T04:10:52.897Z,8.10
2023-02-21T04:11:52.416Z,8.10
2023-02-21T04:12:52.583Z,8.10
2023-02-21T04:13:52.763Z,7.80
2023-02-21T04:14:52.959Z,7.80
2023-02-21T04:15:53.114Z,8.10
2023-02-21T04:16:53.276Z,8.30
2023-02-21T04:17:53.425Z,8.20
2023-02-21T04:18:53.622Z,8.00
2023-02-21T04:19:53.817Z,8.00
2023-02-21T04:20:53.978Z,7.70
2023-02-21T04:21:54.137Z,8.30
2023-02-21T04:23:02.723Z,8.30
2023-02-21T04:23:55.485Z,8.30
2023-02-21T04:24:54.677Z,8.10
2023-02-21T04:25:54.817Z,8.30
2023-02-21T04:26:55.025Z,8.00
2023-02-21T04:27:55.168Z,8.70
2023-02-21T04:28:55.348Z,8.70
2023-02-21T04:29:55.509Z,8.50
2023-02-21T04:30:55.668Z,8.50
2023-02-21T04:31:55.909Z,8.30
2023-02-21T04:32:56.040Z,8.60
2023-02-21T04:34:10.621Z,8.40
2023-02-21T04:34:57.360Z,8.80
2023-02-21T04:35:56.553Z,9.00
2023-02-21T04:36:56.739Z,9.20
2023-02-21T04:37:56.890Z,9.00
2023-02-21T04:38:57.050Z,9.80
2023-02-21T04:39:57.214Z,9.20
2023-02-21T04:40:57.381Z,8.50
2023-02-21T04:41:57.570Z,8.20
2023-02-21T04:42:57.690Z,8.70
2023-02-21T04:43:57.855Z,8.60
2023-02-21T04:45:00.448Z,8.70
2023-02-21T04:45:58.233Z,8.70
2023-02-21T04:46:58.421Z,8.10
2023-02-21T04:47:58.526Z,9.10
2023-02-21T04:48:58.683Z,8.80
2023-02-21T04:49:58.832Z,9.10
2023-02-21T04:51:13.448Z,9.10
2023-02-21T04:52:00.166Z,8.30
2023-02-21T04:52:59.367Z,8.80
2023-02-21T04:53:59.494Z,9.00
2023-02-21T04:54:59.670Z,8.30
2023-02-21T04:55:59.826Z,7.90
2023-02-21T04:57:00.032Z,8.50
2023-02-21T04:58:00.156Z,8.80
2023-02-21T04:59:00.331Z,8.00
2023-02-21T05:00:00.540Z,8.00
2023-02-21T05:01:00.725Z,8.20
2023-02-21T05:02:02.852Z,8.60
2023-02-21T05:03:01.007Z,8.60
2023-02-21T05:04:01.254Z,8.50
2023-02-21T05:05:01.389Z,8.90
2023-02-21T05:06:01.496Z,8.40
2023-02-21T05:07:01.676Z,8.30
2023-02-21T05:08:01.831Z,8.90
2023-02-21T05:09:02.007Z,8.00
2023-02-21T05:10:02.160Z,8.10
2023-02-21T05:11:02.331Z,8.80
2023-02-21T05:12:02.480Z,8.90
2023-02-21T05:13:02.649Z,8.80
2023-02-21T05:14:02.838Z,8.70
2023-02-21T05:15:02.990Z,8.10
2023-02-21T05:16:03.168Z,8.00
2023-02-21T05:17:03.336Z,8.10
2023-02-21T05:18:03.492Z,7.70
2023-02-21T05:19:03.678Z,8.00
2023-02-21T05:20:03.821Z,8.10
2023-02-21T05:21:03.989Z,7.80
2023-02-21T05:22:04.140Z,7.70
2023-02-21T05:23:13.092Z,8.00
2023-02-21T05:24:05.498Z,8.10
2023-02-21T05:25:04.640Z,8.10
2023-02-21T05:26:04.783Z,8.00
2023-02-21T05:27:04.950Z,8.30
2023-02-21T05:28:05.110Z,8.00
2023-02-21T05:29:05.272Z,7.80
2023-02-21T05:30:05.473Z,8.10
2023-02-21T05:31:05.706Z,7.90
2023-02-21T05:32:05.801Z,7.80
2023-02-21T05:33:05.959Z,7.20
2023-02-21T05:34:06.101Z,8.00
2023-02-21T05:35:06.367Z,7.50
2023-02-21T05:36:06.463Z,7.60
2023-02-21T05:37:06.638Z,7.90
2023-02-21T05:38:06.816Z,7.80
2023-02-21T05:39:07.005Z,7.70
2023-02-21T05:40:07.159Z,7.90
2023-02-21T05:41:07.314Z,7.50
2023-02-21T05:42:07.465Z,7.30
2023-02-21T05:43:07.665Z,7.80
2023-02-21T05:44:07.785Z,7.20
2023-02-21T05:45:07.983Z,7.50
2023-02-21T05:46:08.204Z,7.80
2023-02-21T05:47:08.302Z,7.20
2023-02-21T05:48:08.466Z,7.80
2023-02-21T05:49:08.647Z,7.50
2023-02-21T05:50:08.832Z,7.60
2023-02-21T05:51:08.980Z,7.20
2023-02-21T05:52:09.169Z,7.40
2023-02-21T05:53:09.347Z,7.30
2023-02-21T05:54:09.531Z,7.40
2023-02-21T05:55:09.707Z,7.60
2023-02-21T05:56:10.659Z,7.10
2023-02-21T05:57:10.041Z,7.40
2023-02-21T05:58:10.205Z,6.70
2023-02-21T05:59:10.355Z,7.30
2023-02-21T06:00:10.530Z,7.20
2023-02-21T06:01:10.676Z,7.30
2023-02-21T06:02:10.902Z,7.50
2023-02-21T06:03:11.068Z,7.30
2023-02-21T06:04:11.237Z,7.10
2023-02-21T06:05:11.408Z,7.00
2023-02-21T06:06:11.566Z,7.30
2023-02-21T06:07:11.748Z,7.10
2023-02-21T06:08:13.878Z,6.80
2023-02-21T06:09:12.087Z,7.50
2023-02-21T06:10:12.309Z,6.90
2023-02-21T06:11:12.490Z,7.40
2023-02-21T06:12:12.586Z,7.70
2023-02-21T06:13:12.757Z,7.00
2023-02-21T06:14:12.941Z,7.30
2023-02-21T06:15:13.182Z,7.70
2023-02-21T06:16:13.331Z,7.30
2023-02-21T06:17:13.423Z,7.30
2023-02-21T06:18:13.590Z,6.90
2023-02-21T06:19:13.772Z,7.30
2023-02-21T06:20:13.948Z,6.90
2023-02-21T06:21:14.368Z,7.10
2023-02-21T06:22:14.269Z,7.60
2023-02-21T06:23:14.428Z,7.60
2023-02-21T06:24:14.589Z,7.90
2023-02-21T06:25:14.780Z,7.00
2023-02-21T06:26:14.948Z,7.30
2023-02-21T06:27:15.122Z,7.50
2023-02-21T06:28:15.295Z,7.70
2023-02-21T06:29:15.451Z,7.50
2023-02-21T06:30:15.657Z,7.20
2023-02-21T06:31:16.210Z,7.20
2023-02-21T06:32:16.010Z,7.00
2023-02-21T06:33:16.117Z,7.50
2023-02-21T06:34:16.286Z,7.20
2023-02-21T06:35:16.478Z,7.00
2023-02-21T06:36:16.679Z,7.20
2023-02-21T06:37:16.808Z,7.00
2023-02-21T06:38:17.002Z,7.20
2023-02-21T06:39:17.172Z,7.70
2023-02-21T06:40:17.371Z,7.20
2023-02-21T06:41:17.510Z,7.00
2023-02-21T06:42:17.671Z,6.70
2023-02-21T06:43:17.842Z,7.00
2023-02-21T06:44:18.015Z,7.00
2023-02-21T06:45:18.191Z,7.00
2023-02-21T06:46:18.466Z,6.70
2023-02-21T06:47:18.542Z,7.60
2023-02-21T06:48:18.720Z,6.40
2023-02-21T06:49:18.893Z,6.60
2023-02-21T06:50:19.083Z,6.90
2023-02-21T06:51:19.243Z,6.70
2023-02-21T06:52:19.426Z,6.30
2023-02-21T06:53:19.615Z,6.60
2023-02-21T06:54:19.767Z,6.80
2023-02-21T06:55:19.995Z,6.80
2023-02-21T06:56:20.135Z,6.40
2023-02-21T06:57:20.315Z,6.70
2023-02-21T06:58:20.490Z,6.90
2023-02-21T06:59:20.650Z,6.30
2023-02-21T07:00:20.847Z,6.60
2023-02-21T07:01:21.042Z,6.80
2023-02-21T07:02:21.214Z,6.30
2023-02-21T07:03:21.378Z,6.10
2023-02-21T07:04:21.588Z,6.70
2023-02-21T07:05:21.718Z,6.60
2023-02-21T07:06:21.894Z,6.90
2023-02-21T07:07:22.068Z,6.20
2023-02-21T07:08:22.239Z,6.40
2023-02-21T07:09:22.421Z,6.50
2023-02-21T07:10:22.640Z,6.20
2023-02-21T07:11:22.818Z,6.00
2023-02-21T07:12:22.948Z,6.40
2023-02-21T07:13:23.125Z,6.00
2023-02-21T07:14:23.298Z,6.00
2023-02-21T07:15:23.493Z,6.50
2023-02-21T07:16:23.634Z,6.50
2023-02-21T07:17:23.807Z,6.80
2023-02-21T07:18:24.041Z,6.30
2023-02-21T07:19:24.148Z,6.30
2023-02-21T07:20:24.338Z,6.20
2023-02-21T07:21:24.486Z,6.30
2023-02-21T07:22:24.648Z,6.40
2023-02-21T07:23:24.825Z,6.10
2023-02-21T07:24:25.001Z,5.90
2023-02-21T07:25:25.193Z,6.40
2023-02-21T07:26:25.337Z,6.20
2023-02-21T07:27:25.507Z,6.10
2023-02-21T07:28:25.677Z,6.40
2023-02-21T07:29:25.932Z,6.10
2023-02-21T07:30:26.081Z,6.40
2023-02-21T07:31:26.220Z,6.30
2023-02-21T07:32:31.506Z,6.00
2023-02-21T07:33:26.529Z,6.20
2023-02-21T07:34:26.688Z,6.80
2023-02-21T07:35:26.881Z,6.00
2023-02-21T07:36:27.026Z,5.60
2023-02-21T07:37:27.200Z,5.70
2023-02-21T07:38:27.371Z,5.60
2023-02-21T07:39:27.562Z,6.30
2023-02-21T07:40:27.761Z,6.10
2023-02-21T07:41:27.893Z,6.20
2023-02-21T07:42:28.040Z,5.70
2023-02-21T07:43:28.224Z,6.10
2023-02-21T07:44:28.396Z,5.80
2023-02-21T07:45:28.559Z,6.10
2023-02-21T07:46:28.800Z,5.70
2023-02-21T07:47:28.926Z,6.30
2023-02-21T07:48:29.096Z,5.70
2023-02-21T07:49:29.268Z,5.60
2023-02-21T07:50:29.446Z,5.60
2023-02-21T07:51:29.622Z,6.20
2023-02-21T07:52:29.792Z,6.50
2023-02-21T07:53:29.973Z,6.30
2023-02-21T07:54:30.157Z,6.00
2023-02-21T07:55:30.337Z,5.70
2023-02-21T07:56:30.500Z,6.00
2023-02-21T07:57:30.667Z,5.90
2023-02-21T07:58:30.816Z,6.00
2023-02-21T07:59:31.019Z,6.00
2023-02-21T08:00:31.166Z,6.00
2023-02-21T08:01:31.440Z,6.00
2023-02-21T08:02:31.513Z,5.80
2023-02-21T08:03:31.746Z,6.30
2023-02-21T08:04:31.905Z,5.60
2023-02-21T08:05:32.081Z,5.50
2023-02-21T08:06:32.248Z,5.50
2023-02-21T08:07:32.441Z,5.60
2023-02-21T08:08:32.637Z,5.50
2023-02-21T08:09:32.801Z,5.10
2023-02-21T08:10:32.989Z,5.10
2023-02-21T08:11:33.129Z,5.00
2023-02-21T08:12:33.308Z,5.20
2023-02-21T08:13:33.505Z,4.80
2023-02-21T08:14:33.732Z,4.90
2023-02-21T08:15:33.848Z,4.90
2023-02-21T08:16:34.997Z,4.80
2023-02-21T08:17:34.167Z,4.70
2023-02-21T08:18:34.330Z,5.10
2023-02-21T08:19:34.504Z,4.90
2023-02-21T08:20:34.671Z,4.60
2023-02-21T08:21:34.853Z,4.70
2023-02-21T08:22:34.995Z,4.40
2023-02-21T08:23:35.149Z,4.60
2023-02-21T08:24:35.319Z,4.30
2023-02-21T08:25:35.499Z,4.60
2023-02-21T08:26:35.649Z,4.40
2023-02-21T08:27:35.813Z,4.40
2023-02-21T08:28:35.972Z,4.40
2023-02-21T08:29:36.202Z,4.50
2023-02-21T08:30:36.387Z,4.30
2023-02-21T08:31:36.604Z,4.30
2023-02-21T08:32:36.701Z,4.00
2023-02-21T08:33:36.899Z,3.80
2023-02-21T08:34:37.102Z,3.90
2023-02-21T08:35:37.259Z,4.20
2023-02-21T08:36:37.420Z,3.90
2023-02-21T08:37:37.591Z,3.90
2023-02-21T08:38:37.788Z,3.90
2023-02-21T08:39:37.965Z,3.80
2023-02-21T08:40:38.097Z,3.90
2023-02-21T08:41:38.265Z,3.90
2023-02-21T08:42:38.416Z,3.10
2023-02-21T08:43:38.573Z,3.00
2023-02-21T08:44:38.754Z,2.80
2023-02-21T08:45:38.914Z,3.10
2023-02-21T08:46:39.124Z,2.80
2023-02-21T08:47:39.266Z,2.80
2023-02-21T08:48:39.431Z,2.40
2023-02-21T08:49:39.605Z,2.70
2023-02-21T08:50:39.737Z,2.50
2023-02-21T08:51:39.922Z,2.50
2023-02-21T08:52:40.088Z,2.40
2023-02-21T08:53:40.249Z,2.50
2023-02-21T08:54:40.417Z,2.50
2023-02-21T08:55:40.596Z,3.00
2023-02-21T08:56:40.755Z,2.80
2023-02-21T08:57:40.918Z,2.70
2023-02-21T08:58:41.077Z,2.70
2023-02-21T08:59:41.258Z,2.80
2023-02-21T09:00:41.425Z,2.50
2023-02-21T09:01:41.558Z,2.60
2023-02-21T09:02:41.730Z,2.70
2023-02-21T09:03:41.929Z,2.40
2023-02-21T09:04:42.073Z,2.40
2023-02-21T09:05:42.263Z,2.30
2023-02-21T09:06:42.411Z,2.10
2023-02-21T09:07:42.581Z,2.20
2023-02-21T09:08:42.753Z,1.90
2023-02-21T09:09:42.936Z,1.80
2023-02-21T09:10:43.132Z,2.00
2023-02-21T09:11:43.262Z,1.60
2023-02-21T09:12:43.448Z,1.50
2023-02-21T09:13:43.634Z,1.70
2023-02-21T09:14:43.767Z,1.60
2023-02-21T09:15:43.942Z,1.40
2023-02-21T09:16:46.206Z,1.40
2023-02-21T09:17:44.265Z,1.70
2023-02-21T09:18:44.437Z,1.40
2023-02-21T09:19:44.601Z,1.30
2023-02-21T09:20:44.757Z,1.10
2023-02-21T09:21:44.912Z,1.30
2023-02-21T09:22:45.122Z,1.30
2023-02-21T09:23:45.288Z,1.10
2023-02-21T09:24:45.449Z,1.00
2023-02-21T09:25:45.609Z,1.00
2023-02-21T09:26:45.758Z,1.10
2023-02-21T09:27:45.972Z,1.10
2023-02-21T09:28:46.141Z,1.00
2023-02-21T09:29:46.990Z,0.90
2023-02-21T09:30:46.529Z,0.90
2023-02-21T09:31:46.699Z,1.00
2023-02-21T09:32:46.892Z,0.80
2023-02-21T09:33:47.064Z,1.20
2023-02-21T09:34:47.205Z,1.00
2023-02-21T09:35:47.386Z,0.90
2023-02-21T09:38:02.634Z,0.80
2023-02-21T09:39:02.800Z,0.90
2023-02-21T09:40:03.001Z,0.60
2023-02-21T09:41:03.157Z,0.70
2023-02-21T09:42:03.350Z,0.70
2023-02-21T09:43:03.532Z,0.80
2023-02-21T09:44:03.732Z,0.70
2023-02-21T09:45:04.864Z,0.80
2023-02-21T09:46:04.082Z,0.90
2023-02-21T09:47:04.222Z,0.70
2023-02-21T09:48:04.403Z,0.90
2023-02-21T09:49:04.571Z,0.80
2023-02-21T09:50:04.728Z,0.80
2023-02-21T09:51:04.891Z,0.80
2023-02-21T09:52:05.049Z,0.80
2023-02-21T09:53:05.223Z,1.00
2023-02-21T09:54:05.390Z,0.90
2023-02-21T09:55:05.543Z,1.00
2023-02-21T09:56:05.725Z,0.80
2023-02-21T09:57:05.879Z,0.90
2023-02-21T09:58:06.082Z,1.10
2023-02-21T09:59:06.222Z,1.20
2023-02-21T10:00:06.395Z,0.90
2023-02-21T10:01:06.597Z,1.00
2023-02-21T10:02:06.737Z,1.10
2023-02-21T10:03:06.944Z,1.10
2023-02-21T10:04:07.078Z,1.10
2023-02-21T10:05:07.268Z,1.10
2023-02-21T10:06:07.420Z,0.90
2023-02-21T10:07:07.590Z,0.90
2023-02-21T10:08:07.817Z,1.00
2023-02-21T10:09:07.909Z,1.00
2023-02-21T10:10:08.087Z,1.10
2023-02-21T10:11:08.258Z,1.10
2023-02-21T10:12:08.434Z,1.10
2023-02-21T10:13:08.635Z,1.00
2023-02-21T10:14:08.784Z,1.00
2023-02-21T10:15:08.900Z,0.90
2023-02-21T10:16:09.131Z,1.00
2023-02-21T10:17:09.330Z,1.10
2023-02-21T10:18:09.430Z,0.90
2023-02-21T10:19:09.575Z,0.90
2023-02-21T10:20:09.740Z,1.00
2023-02-21T10:21:09.909Z,1.00
2023-02-21T10:22:10.111Z,0.90
2023-02-21T10:23:10.251Z,1.10
2023-02-21T10:24:10.458Z,1.00
2023-02-21T10:25:10.590Z,0.90
2023-02-21T10:26:10.807Z,1.00
2023-02-21T10:27:10.927Z,1.00
2023-02-21T10:28:11.101Z,0.90
2023-02-21T10:29:11.260Z,0.80
2023-02-21T10:30:11.490Z,0.90
2023-02-21T10:31:11.728Z,0.80
2023-02-21T10:32:11.828Z,1.10
2023-02-21T10:33:12.010Z,0.90
2023-02-21T10:34:12.108Z,1.00
2023-02-21T10:35:12.290Z,0.90
2023-02-21T10:36:12.472Z,0.80
2023-02-21T10:37:12.680Z,1.10
2023-02-21T10:38:12.816Z,1.10
2023-02-21T10:39:12.977Z,0.90
2023-02-21T10:40:13.184Z,0.90
2023-02-21T10:41:13.673Z,0.90
2023-02-21T10:42:13.510Z,0.90
2023-02-21T10:43:13.682Z,0.90
2023-02-21T10:44:13.848Z,1.10
2023-02-21T10:45:14.000Z,1.00
2023-02-21T10:46:14.226Z,0.80
2023-02-21T10:47:14.327Z,0.80
2023-02-21T10:48:14.514Z,0.80
2023-02-21T10:49:14.681Z,0.80
2023-02-21T10:50:14.849Z,0.80
2023-02-21T10:51:15.325Z,1.20
2023-02-21T10:52:15.196Z,0.90
2023-02-21T10:53:15.411Z,0.80
2023-02-21T10:54:15.545Z,0.90
2023-02-21T10:55:31.366Z,0.90
2023-02-21T10:56:17.143Z,0.90
2023-02-21T10:57:16.065Z,0.80
2023-02-21T10:58:16.214Z,0.90
2023-02-21T10:59:16.434Z,0.80
2023-02-21T11:00:16.680Z,0.90
2023-02-21T11:01:17.053Z,0.90
2023-02-21T11:02:16.952Z,0.70
2023-02-21T11:03:17.100Z,0.90
2023-02-21T11:04:17.275Z,0.80
2023-02-21T11:05:17.431Z,0.90
2023-02-21T11:06:17.620Z,0.90
2023-02-21T11:07:17.785Z,0.70
2023-02-21T11:08:17.951Z,0.90
2023-02-21T11:09:18.127Z,0.80
2023-02-21T11:10:18.328Z,0.70
2023-02-21T11:11:18.503Z,0.70
2023-02-21T11:12:18.649Z,0.90
2023-02-21T11:13:18.818Z,0.90
2023-02-21T11:14:19.020Z,0.80
2023-02-21T11:15:19.176Z,0.80
2023-02-21T11:16:19.338Z,0.60
2023-02-21T11:17:19.484Z,1.00
2023-02-21T11:18:19.668Z,0.80
2023-02-21T11:19:19.803Z,0.80
2023-02-21T11:20:19.983Z,0.90
2023-02-21T11:21:20.174Z,0.80
2023-02-21T11:22:20.318Z,0.80
2023-02-21T11:23:20.474Z,1.20
2023-02-21T11:24:20.645Z,0.90
2023-02-21T11:25:20.790Z,1.00
2023-02-21T11:26:21.034Z,1.00
2023-02-21T11:27:21.162Z,0.80
2023-02-21T11:28:21.329Z,0.70
2023-02-21T11:29:21.538Z,0.80
2023-02-21T11:30:21.789Z,0.90
2023-02-21T11:31:21.887Z,0.80
2023-02-21T11:32:22.027Z,0.90
2023-02-21T11:33:22.167Z,0.90
2023-02-21T11:34:22.360Z,0.90
2023-02-21T11:35:22.492Z,0.80
2023-02-21T11:36:22.715Z,0.90
2023-02-21T11:37:22.855Z,0.80
2023-02-21T11:38:23.001Z,0.80
2023-02-21T11:39:23.201Z,1.10
2023-02-21T11:40:23.336Z,1.00
2023-02-21T11:41:23.544Z,1.10
2023-02-21T11:42:23.766Z,1.10
2023-02-21T11:43:23.885Z,1.10
2023-02-21T11:44:24.033Z,1.00
2023-02-21T11:45:24.184Z,0.90
2023-02-21T11:46:24.542Z,1.00
2023-02-21T11:47:24.558Z,0.80
2023-02-21T11:48:24.702Z,1.00
2023-02-21T11:49:24.862Z,0.90
2023-02-21T11:50:25.026Z,0.90
2023-02-21T11:51:25.186Z,0.90
2023-02-21T11:52:25.364Z,0.90
2023-02-21T11:53:25.548Z,0.90
2023-02-21T11:54:25.728Z,0.80
2023-02-21T11:55:26.589Z,0.80
2023-02-21T11:56:26.091Z,0.90
2023-02-21T11:57:26.229Z,0.80
2023-02-21T11:58:26.386Z,0.80
2023-02-21T11:59:26.555Z,0.90
2023-02-21T12:00:26.717Z,0.80
2023-02-21T12:01:26.910Z,0.80
2023-02-21T12:02:27.054Z,0.70
2023-02-21T12:03:27.209Z,1.00
2023-02-21T12:04:27.396Z,1.00
2023-02-21T12:05:27.540Z,1.20
2023-02-21T12:06:27.737Z,1.10
2023-02-21T12:07:27.920Z,1.40
2023-02-21T12:08:28.073Z,1.20
2023-02-21T12:09:28.232Z,1.20
2023-02-21T12:10:28.419Z,1.20
2023-02-21T12:11:28.618Z,1.30
2023-02-21T12:12:28.763Z,2.10
2023-02-21T12:13:28.927Z,1.30
2023-02-21T12:14:29.104Z,1.30
2023-02-21T12:15:29.271Z,1.20
2023-02-21T12:16:29.438Z,1.20
2023-02-21T12:17:29.616Z,1.00
2023-02-21T12:18:29.802Z,0.90
2023-02-21T12:19:29.976Z,1.30
2023-02-21T12:20:30.128Z,1.00
2023-02-21T12:21:30.332Z,1.20
2023-02-21T12:22:30.499Z,1.30
2023-02-21T12:23:30.669Z,1.00
2023-02-21T12:24:30.861Z,1.00
2023-02-21T12:25:31.004Z,0.90
2023-02-21T12:26:31.214Z,1.10
2023-02-21T12:27:31.329Z,0.80
2023-02-21T12:28:31.493Z,1.10
2023-02-21T12:29:31.663Z,1.00
2023-02-21T12:30:31.876Z,1.00
2023-02-21T12:31:32.198Z,1.00
2023-02-21T12:32:32.197Z,0.80
2023-02-21T12:33:32.378Z,0.90
2023-02-21T12:34:32.560Z,0.70
2023-02-21T12:35:32.764Z,1.10
2023-02-21T12:36:32.887Z,1.00
2023-02-21T12:37:33.064Z,0.90
2023-02-21T12:38:33.242Z,0.70
2023-02-21T12:39:33.412Z,0.90
2023-02-21T12:40:33.571Z,0.90
2023-02-21T12:41:33.735Z,0.80
2023-02-21T12:42:33.902Z,0.80
2023-02-21T12:43:34.050Z,1.00
2023-02-21T12:44:34.256Z,0.90
2023-02-21T12:45:34.394Z,0.90
2023-02-21T12:46:34.583Z,1.20
2023-02-21T12:47:34.704Z,1.20
2023-02-21T12:48:34.890Z,1.10
2023-02-21T12:49:35.066Z,1.40
2023-02-21T12:50:35.241Z,1.30
2023-02-21T12:51:35.414Z,1.30
2023-02-21T12:52:35.619Z,1.30
2023-02-21T12:53:35.816Z,1.20
2023-02-21T12:54:35.969Z,1.40
2023-02-21T12:55:36.114Z,1.40
2023-02-21T12:56:36.303Z,1.20
2023-02-21T12:57:36.470Z,1.60
2023-02-21T12:58:36.659Z,1.20
2023-02-21T12:59:36.864Z,1.10
2023-02-21T13:00:36.974Z,1.10
2023-02-21T13:01:37.156Z,1.50
2023-02-21T13:02:37.349Z,1.40
2023-02-21T13:03:37.479Z,1.30
2023-02-21T13:04:37.649Z,1.40
2023-02-21T13:05:37.796Z,1.20
2023-02-21T13:06:37.958Z,1.40
2023-02-21T13:07:38.152Z,1.40
2023-02-21T13:08:38.293Z,1.20
2023-02-21T13:09:38.487Z,1.30
2023-02-21T13:10:38.643Z,1.00
2023-02-21T13:11:38.823Z,1.20
2023-02-21T13:12:39.012Z,1.30
2023-02-21T13:13:39.150Z,1.00
2023-02-21T13:14:39.375Z,1.10
2023-02-21T13:15:39.495Z,1.20
2023-02-21T13:16:39.680Z,0.90
2023-02-21T13:17:39.831Z,0.90
2023-02-21T13:18:40.023Z,1.00
2023-02-21T13:19:40.160Z,1.10
2023-02-21T13:20:40.345Z,1.00
2023-02-21T13:21:40.500Z,1.00